sensor_id;sensor_type;location;lat;lon;timestamp;P1;durP1;ratioP1;P2;durP2;ratioP2
13683;SDS011;6914;53.552;9.908;2024-02-23T00:00:11;2.90;;;0.67;;
13683;SDS011;6914;53.552;9.908;2024-02-23T00:02:39;0.77;;;0.77;;
13683;SDS011;6914;53.552;9.908;2024-02-23T00:05:10;4.10;;;0.70;;
13683;SDS011;6914;53.552;9.908;2024-02-23T00:07:38;0.80;;;0.80;;
13683;SDS011;6914;53.552;9.908;2024-02-23T00:10:06;2.93;;;1.07;;
13683;SDS011;6914;53.552;9.908;2024-02-23T00:12:35;1.87;;;1.10;;
13683;SDS011;6914;53.552;9.908;2024-02-23T00:15:03;5.50;;;1.00;;
13683;SDS011;6914;53.552;9.908;2024-02-23T00:17:32;1.33;;;1.10;;
13683;SDS011;6914;53.552;9.908;2024-02-23T00:20:00;1.93;;;0.97;;
13683;SDS011;6914;53.552;9.908;2024-02-23T00:22:30;1.37;;;0.90;;
13683;SDS011;6914;53.552;9.908;2024-02-23T00:24:57;1.60;;;1.10;;
13683;SDS011;6914;53.552;9.908;2024-02-23T00:27:25;7.10;;;1.37;;
13683;SDS011;6914;53.552;9.908;2024-02-23T00:29:53;1.20;;;1.10;;
13683;SDS011;6914;53.552;9.908;2024-02-23T00:32:22;3.80;;;1.20;;
13683;SDS011;6914;53.552;9.908;2024-02-23T00:34:50;1.43;;;0.87;;
13683;SDS011;6914;53.552;9.908;2024-02-23T00:37:17;0.90;;;0.90;;
13683;SDS011;6914;53.552;9.908;2024-02-23T00:39:46;9.57;;;1.20;;
13683;SDS011;6914;53.552;9.908;2024-02-23T00:42:14;1.50;;;1.10;;
13683;SDS011;6914;53.552;9.908;2024-02-23T00:44:42;0.80;;;0.80;;
13683;SDS011;6914;53.552;9.908;2024-02-23T00:47:10;1.00;;;0.90;;
13683;SDS011;6914;53.552;9.908;2024-02-23T00:49:37;0.80;;;0.80;;
13683;SDS011;6914;53.552;9.908;2024-02-23T00:52:05;0.90;;;0.80;;
13683;SDS011;6914;53.552;9.908;2024-02-23T00:54:33;5.07;;;1.00;;
13683;SDS011;6914;53.552;9.908;2024-02-23T00:57:04;0.60;;;0.60;;
13683;SDS011;6914;53.552;9.908;2024-02-23T00:59:33;7.20;;;1.20;;
13683;SDS011;6914;53.552;9.908;2024-02-23T01:02:00;0.60;;;0.60;;
13683;SDS011;6914;53.552;9.908;2024-02-23T01:04:27;1.47;;;0.57;;
13683;SDS011;6914;53.552;9.908;2024-02-23T01:06:57;0.63;;;0.63;;
13683;SDS011;6914;53.552;9.908;2024-02-23T01:09:26;0.70;;;0.70;;
13683;SDS011;6914;53.552;9.908;2024-02-23T01:11:55;0.73;;;0.73;;
13683;SDS011;6914;53.552;9.908;2024-02-23T01:14:26;0.60;;;0.60;;
13683;SDS011;6914;53.552;9.908;2024-02-23T01:16:53;0.80;;;0.80;;
13683;SDS011;6914;53.552;9.908;2024-02-23T01:19:20;1.43;;;0.57;;
13683;SDS011;6914;53.552;9.908;2024-02-23T01:21:48;0.70;;;0.70;;
13683;SDS011;6914;53.552;9.908;2024-02-23T01:24:24;0.60;;;0.60;;
13683;SDS011;6914;53.552;9.908;2024-02-23T01:26:52;0.80;;;0.73;;
13683;SDS011;6914;53.552;9.908;2024-02-23T01:29:20;0.90;;;0.80;;
13683;SDS011;6914;53.552;9.908;2024-02-23T01:31:48;2.90;;;0.73;;
13683;SDS011;6914;53.552;9.908;2024-02-23T01:34:16;0.80;;;0.80;;
13683;SDS011;6914;53.552;9.908;2024-02-23T01:36:44;0.70;;;0.70;;
13683;SDS011;6914;53.552;9.908;2024-02-23T01:39:11;0.60;;;0.60;;
13683;SDS011;6914;53.552;9.908;2024-02-23T01:41:38;0.93;;;0.70;;
13683;SDS011;6914;53.552;9.908;2024-02-23T01:44:05;0.70;;;0.70;;
13683;SDS011;6914;53.552;9.908;2024-02-23T01:46:32;0.67;;;0.67;;
13683;SDS011;6914;53.552;9.908;2024-02-23T01:49:01;0.57;;;0.57;;
13683;SDS011;6914;53.552;9.908;2024-02-23T01:51:28;0.50;;;0.50;;
13683;SDS011;6914;53.552;9.908;2024-02-23T01:53:56;0.70;;;0.70;;
13683;SDS011;6914;53.552;9.908;2024-02-23T01:56:23;0.70;;;0.70;;
13683;SDS011;6914;53.552;9.908;2024-02-23T01:58:50;0.60;;;0.60;;
13683;SDS011;6914;53.552;9.908;2024-02-23T02:01:19;0.70;;;0.70;;
13683;SDS011;6914;53.552;9.908;2024-02-23T02:03:46;0.50;;;0.50;;
13683;SDS011;6914;53.552;9.908;2024-02-23T02:06:15;2.00;;;0.50;;
13683;SDS011;6914;53.552;9.908;2024-02-23T02:08:42;0.50;;;0.50;;
13683;SDS011;6914;53.552;9.908;2024-02-23T02:11:09;0.40;;;0.40;;
13683;SDS011;6914;53.552;9.908;2024-02-23T02:13:36;0.40;;;0.40;;
13683;SDS011;6914;53.552;9.908;2024-02-23T02:16:03;0.50;;;0.50;;
13683;SDS011;6914;53.552;9.908;2024-02-23T02:18:31;0.50;;;0.50;;
13683;SDS011;6914;53.552;9.908;2024-02-23T02:20:58;0.50;;;0.50;;
13683;SDS011;6914;53.552;9.908;2024-02-23T02:23:27;0.50;;;0.50;;
13683;SDS011;6914;53.552;9.908;2024-02-23T02:25:54;0.50;;;0.50;;
13683;SDS011;6914;53.552;9.908;2024-02-23T02:28:21;0.50;;;0.50;;
13683;SDS011;6914;53.552;9.908;2024-02-23T02:30:48;0.53;;;0.53;;
13683;SDS011;6914;53.552;9.908;2024-02-23T02:33:15;0.50;;;0.50;;
13683;SDS011;6914;53.552;9.908;2024-02-23T02:35:43;1.07;;;0.50;;
13683;SDS011;6914;53.552;9.908;2024-02-23T02:38:10;0.50;;;0.50;;
13683;SDS011;6914;53.552;9.908;2024-02-23T02:40:38;0.40;;;0.40;;
13683;SDS011;6914;53.552;9.908;2024-02-23T02:43:05;0.40;;;0.40;;
13683;SDS011;6914;53.552;9.908;2024-02-23T02:45:33;0.50;;;0.50;;
13683;SDS011;6914;53.552;9.908;2024-02-23T02:48:00;0.60;;;0.50;;
13683;SDS011;6914;53.552;9.908;2024-02-23T02:50:28;0.50;;;0.50;;
13683;SDS011;6914;53.552;9.908;2024-02-23T02:52:55;0.77;;;0.60;;
13683;SDS011;6914;53.552;9.908;2024-02-23T02:55:22;0.50;;;0.50;;
13683;SDS011;6914;53.552;9.908;2024-02-23T02:57:50;0.43;;;0.43;;
13683;SDS011;6914;53.552;9.908;2024-02-23T03:00:17;0.60;;;0.60;;
13683;SDS011;6914;53.552;9.908;2024-02-23T03:02:45;0.50;;;0.50;;
13683;SDS011;6914;53.552;9.908;2024-02-23T03:05:12;1.33;;;0.77;;
13683;SDS011;6914;53.552;9.908;2024-02-23T03:07:39;0.50;;;0.50;;
13683;SDS011;6914;53.552;9.908;2024-02-23T03:10:06;0.80;;;0.60;;
13683;SDS011;6914;53.552;9.908;2024-02-23T03:12:34;0.40;;;0.40;;
13683;SDS011;6914;53.552;9.908;2024-02-23T03:15:02;2.63;;;1.00;;
13683;SDS011;6914;53.552;9.908;2024-02-23T03:17:30;1.80;;;0.60;;
13683;SDS011;6914;53.552;9.908;2024-02-23T03:19:58;1.53;;;0.93;;
13683;SDS011;6914;53.552;9.908;2024-02-23T03:22:25;1.43;;;0.70;;
13683;SDS011;6914;53.552;9.908;2024-02-23T03:24:52;0.63;;;0.60;;
13683;SDS011;6914;53.552;9.908;2024-02-23T03:27:19;1.00;;;0.80;;
13683;SDS011;6914;53.552;9.908;2024-02-23T03:29:53;0.87;;;0.87;;
13683;SDS011;6914;53.552;9.908;2024-02-23T03:32:22;0.60;;;0.60;;
13683;SDS011;6914;53.552;9.908;2024-02-23T03:34:49;0.90;;;0.90;;
13683;SDS011;6914;53.552;9.908;2024-02-23T03:37:16;0.80;;;0.80;;
13683;SDS011;6914;53.552;9.908;2024-02-23T03:39:43;0.77;;;0.77;;
13683;SDS011;6914;53.552;9.908;2024-02-23T03:42:11;1.30;;;1.30;;
13683;SDS011;6914;53.552;9.908;2024-02-23T03:44:38;1.43;;;1.00;;
13683;SDS011;6914;53.552;9.908;2024-02-23T03:47:07;0.97;;;0.87;;
13683;SDS011;6914;53.552;9.908;2024-02-23T03:49:35;0.80;;;0.80;;
13683;SDS011;6914;53.552;9.908;2024-02-23T03:52:03;1.73;;;0.90;;
13683;SDS011;6914;53.552;9.908;2024-02-23T03:54:30;1.63;;;0.93;;
13683;SDS011;6914;53.552;9.908;2024-02-23T03:56:57;1.80;;;1.10;;
13683;SDS011;6914;53.552;9.908;2024-02-23T03:59:27;0.70;;;0.70;;
13683;SDS011;6914;53.552;9.908;2024-02-23T04:01:55;0.80;;;0.80;;
13683;SDS011;6914;53.552;9.908;2024-02-23T04:04:24;0.70;;;0.70;;
13683;SDS011;6914;53.552;9.908;2024-02-23T04:06:55;0.90;;;0.90;;
13683;SDS011;6914;53.552;9.908;2024-02-23T04:09:24;2.20;;;0.80;;
13683;SDS011;6914;53.552;9.908;2024-02-23T04:11:53;0.70;;;0.63;;
13683;SDS011;6914;53.552;9.908;2024-02-23T04:14:22;0.80;;;0.80;;
13683;SDS011;6914;53.552;9.908;2024-02-23T04:16:49;1.30;;;0.67;;
13683;SDS011;6914;53.552;9.908;2024-02-23T04:19:16;0.60;;;0.60;;
13683;SDS011;6914;53.552;9.908;2024-02-23T04:21:45;2.43;;;0.80;;
13683;SDS011;6914;53.552;9.908;2024-02-23T04:24:13;1.07;;;1.07;;
13683;SDS011;6914;53.552;9.908;2024-02-23T04:26:40;0.87;;;0.87;;
13683;SDS011;6914;53.552;9.908;2024-02-23T04:29:07;0.93;;;0.70;;
13683;SDS011;6914;53.552;9.908;2024-02-23T04:31:36;0.70;;;0.70;;
13683;SDS011;6914;53.552;9.908;2024-02-23T04:34:05;0.90;;;0.90;;
13683;SDS011;6914;53.552;9.908;2024-02-23T04:36:34;0.70;;;0.70;;
13683;SDS011;6914;53.552;9.908;2024-02-23T04:39:03;2.47;;;0.77;;
13683;SDS011;6914;53.552;9.908;2024-02-23T04:41:31;2.43;;;0.80;;
13683;SDS011;6914;53.552;9.908;2024-02-23T04:43:58;2.43;;;1.03;;
13683;SDS011;6914;53.552;9.908;2024-02-23T04:46:26;1.83;;;1.30;;
13683;SDS011;6914;53.552;9.908;2024-02-23T04:48:56;0.90;;;0.90;;
13683;SDS011;6914;53.552;9.908;2024-02-23T04:51:25;1.50;;;1.37;;
13683;SDS011;6914;53.552;9.908;2024-02-23T04:53:52;1.07;;;1.07;;
13683;SDS011;6914;53.552;9.908;2024-02-23T04:56:21;4.03;;;1.60;;
13683;SDS011;6914;53.552;9.908;2024-02-23T04:58:52;1.53;;;1.43;;
13683;SDS011;6914;53.552;9.908;2024-02-23T05:01:22;2.30;;;1.83;;
13683;SDS011;6914;53.552;9.908;2024-02-23T05:03:51;2.10;;;1.87;;
13683;SDS011;6914;53.552;9.908;2024-02-23T05:06:18;5.27;;;1.63;;
13683;SDS011;6914;53.552;9.908;2024-02-23T05:08:46;1.90;;;1.63;;
13683;SDS011;6914;53.552;9.908;2024-02-23T05:11:14;1.37;;;1.13;;
13683;SDS011;6914;53.552;9.908;2024-02-23T05:13:41;2.03;;;1.83;;
13683;SDS011;6914;53.552;9.908;2024-02-23T05:16:10;4.80;;;1.60;;
13683;SDS011;6914;53.552;9.908;2024-02-23T05:18:39;3.00;;;1.90;;
13683;SDS011;6914;53.552;9.908;2024-02-23T05:21:08;3.73;;;1.83;;
13683;SDS011;6914;53.552;9.908;2024-02-23T05:23:38;4.03;;;1.93;;
13683;SDS011;6914;53.552;9.908;2024-02-23T05:26:05;4.17;;;1.60;;
13683;SDS011;6914;53.552;9.908;2024-02-23T05:28:32;1.83;;;1.73;;
13683;SDS011;6914;53.552;9.908;2024-02-23T05:31:01;2.80;;;2.33;;
13683;SDS011;6914;53.552;9.908;2024-02-23T05:33:31;6.17;;;1.50;;
13683;SDS011;6914;53.552;9.908;2024-02-23T05:35:58;4.33;;;2.13;;
13683;SDS011;6914;53.552;9.908;2024-02-23T05:38:27;4.73;;;1.63;;
13683;SDS011;6914;53.552;9.908;2024-02-23T05:40:56;4.67;;;2.13;;
13683;SDS011;6914;53.552;9.908;2024-02-23T05:43:23;1.50;;;1.40;;
13683;SDS011;6914;53.552;9.908;2024-02-23T05:45:53;3.97;;;1.53;;
13683;SDS011;6914;53.552;9.908;2024-02-23T05:48:23;12.83;;;1.90;;
13683;SDS011;6914;53.552;9.908;2024-02-23T05:50:52;2.67;;;1.90;;
13683;SDS011;6914;53.552;9.908;2024-02-23T05:53:22;4.00;;;1.50;;
13683;SDS011;6914;53.552;9.908;2024-02-23T05:55:51;2.53;;;1.33;;
13683;SDS011;6914;53.552;9.908;2024-02-23T05:58:21;12.80;;;1.80;;
13683;SDS011;6914;53.552;9.908;2024-02-23T06:00:50;7.10;;;1.47;;
13683;SDS011;6914;53.552;9.908;2024-02-23T06:03:16;2.67;;;1.60;;
13683;SDS011;6914;53.552;9.908;2024-02-23T06:05:46;3.10;;;1.40;;
13683;SDS011;6914;53.552;9.908;2024-02-23T06:08:16;1.20;;;1.10;;
13683;SDS011;6914;53.552;9.908;2024-02-23T06:10:43;1.67;;;1.47;;
13683;SDS011;6914;53.552;9.908;2024-02-23T06:13:12;2.40;;;1.60;;
13683;SDS011;6914;53.552;9.908;2024-02-23T06:15:42;2.40;;;1.00;;
13683;SDS011;6914;53.552;9.908;2024-02-23T06:18:09;1.63;;;1.53;;
13683;SDS011;6914;53.552;9.908;2024-02-23T06:20:40;1.30;;;1.00;;
13683;SDS011;6914;53.552;9.908;2024-02-23T06:23:09;7.00;;;1.80;;
13683;SDS011;6914;53.552;9.908;2024-02-23T06:25:43;4.97;;;1.80;;
13683;SDS011;6914;53.552;9.908;2024-02-23T06:28:12;2.20;;;1.87;;
13683;SDS011;6914;53.552;9.908;2024-02-23T06:30:45;1.77;;;1.30;;
13683;SDS011;6914;53.552;9.908;2024-02-23T06:33:14;2.73;;;1.23;;
13683;SDS011;6914;53.552;9.908;2024-02-23T06:35:44;9.67;;;2.70;;
13683;SDS011;6914;53.552;9.908;2024-02-23T06:38:14;2.60;;;1.53;;
13683;SDS011;6914;53.552;9.908;2024-02-23T06:40:44;2.60;;;2.07;;
13683;SDS011;6914;53.552;9.908;2024-02-23T06:43:14;3.10;;;2.30;;
13683;SDS011;6914;53.552;9.908;2024-02-23T06:45:45;6.03;;;2.00;;
13683;SDS011;6914;53.552;9.908;2024-02-23T06:48:16;2.30;;;1.00;;
13683;SDS011;6914;53.552;9.908;2024-02-23T06:50:43;7.70;;;1.83;;
13683;SDS011;6914;53.552;9.908;2024-02-23T06:53:10;3.33;;;2.27;;
13683;SDS011;6914;53.552;9.908;2024-02-23T06:55:37;3.07;;;1.70;;
13683;SDS011;6914;53.552;9.908;2024-02-23T06:58:16;1.80;;;1.70;;
13683;SDS011;6914;53.552;9.908;2024-02-23T07:00:46;10.33;;;2.00;;
13683;SDS011;6914;53.552;9.908;2024-02-23T07:03:15;10.53;;;2.33;;
13683;SDS011;6914;53.552;9.908;2024-02-23T07:05:44;5.10;;;2.20;;
13683;SDS011;6914;53.552;9.908;2024-02-23T07:08:12;2.60;;;1.60;;
13683;SDS011;6914;53.552;9.908;2024-02-23T07:10:54;1.80;;;1.70;;
13683;SDS011;6914;53.552;9.908;2024-02-23T07:13:23;4.93;;;2.43;;
13683;SDS011;6914;53.552;9.908;2024-02-23T07:15:55;11.90;;;3.20;;
13683;SDS011;6914;53.552;9.908;2024-02-23T07:18:23;3.47;;;3.27;;
13683;SDS011;6914;53.552;9.908;2024-02-23T07:20:55;10.87;;;3.47;;
13683;SDS011;6914;53.552;9.908;2024-02-23T07:23:24;10.60;;;2.90;;
13683;SDS011;6914;53.552;9.908;2024-02-23T07:25:54;7.93;;;2.87;;
13683;SDS011;6914;53.552;9.908;2024-02-23T07:28:31;8.10;;;2.03;;
13683;SDS011;6914;53.552;9.908;2024-02-23T07:31:00;8.13;;;2.20;;
13683;SDS011;6914;53.552;9.908;2024-02-23T07:33:29;3.43;;;2.83;;
13683;SDS011;6914;53.552;9.908;2024-02-23T07:35:58;4.07;;;1.90;;
13683;SDS011;6914;53.552;9.908;2024-02-23T07:38:28;2.67;;;2.40;;
13683;SDS011;6914;53.552;9.908;2024-02-23T07:40:57;6.77;;;2.37;;
13683;SDS011;6914;53.552;9.908;2024-02-23T07:43:28;2.97;;;2.73;;
13683;SDS011;6914;53.552;9.908;2024-02-23T07:45:57;5.93;;;2.20;;
13683;SDS011;6914;53.552;9.908;2024-02-23T07:48:25;8.03;;;3.00;;
13683;SDS011;6914;53.552;9.908;2024-02-23T07:50:53;4.27;;;2.40;;
13683;SDS011;6914;53.552;9.908;2024-02-23T07:53:23;4.40;;;2.50;;
13683;SDS011;6914;53.552;9.908;2024-02-23T07:55:54;5.13;;;2.23;;
13683;SDS011;6914;53.552;9.908;2024-02-23T07:58:31;6.17;;;1.87;;
13683;SDS011;6914;53.552;9.908;2024-02-23T08:01:01;3.80;;;1.87;;
13683;SDS011;6914;53.552;9.908;2024-02-23T08:03:30;8.33;;;2.10;;
13683;SDS011;6914;53.552;9.908;2024-02-23T08:06:00;10.53;;;2.67;;
13683;SDS011;6914;53.552;9.908;2024-02-23T08:08:29;8.77;;;2.67;;
13683;SDS011;6914;53.552;9.908;2024-02-23T08:11:00;6.73;;;2.20;;
13683;SDS011;6914;53.552;9.908;2024-02-23T08:13:28;3.70;;;2.30;;
13683;SDS011;6914;53.552;9.908;2024-02-23T08:16:00;12.83;;;2.40;;
13683;SDS011;6914;53.552;9.908;2024-02-23T08:18:29;4.50;;;1.90;;
13683;SDS011;6914;53.552;9.908;2024-02-23T08:20:59;3.50;;;2.20;;
13683;SDS011;6914;53.552;9.908;2024-02-23T08:23:29;5.63;;;1.77;;
13683;SDS011;6914;53.552;9.908;2024-02-23T08:25:58;3.47;;;2.17;;
13683;SDS011;6914;53.552;9.908;2024-02-23T08:28:31;12.20;;;2.70;;
13683;SDS011;6914;53.552;9.908;2024-02-23T08:31:03;4.10;;;1.63;;
13683;SDS011;6914;53.552;9.908;2024-02-23T08:33:31;8.90;;;1.87;;
13683;SDS011;6914;53.552;9.908;2024-02-23T08:36:02;7.97;;;2.07;;
13683;SDS011;6914;53.552;9.908;2024-02-23T08:38:30;7.00;;;1.97;;
13683;SDS011;6914;53.552;9.908;2024-02-23T08:41:00;1.70;;;1.57;;
13683;SDS011;6914;53.552;9.908;2024-02-23T08:43:39;2.60;;;1.57;;
13683;SDS011;6914;53.552;9.908;2024-02-23T08:46:10;9.77;;;1.77;;
13683;SDS011;6914;53.552;9.908;2024-02-23T08:48:41;3.23;;;1.80;;
13683;SDS011;6914;53.552;9.908;2024-02-23T08:51:10;3.73;;;1.90;;
13683;SDS011;6914;53.552;9.908;2024-02-23T08:53:39;2.27;;;1.57;;
13683;SDS011;6914;53.552;9.908;2024-02-23T08:56:08;5.13;;;1.77;;
13683;SDS011;6914;53.552;9.908;2024-02-23T08:58:38;3.90;;;1.93;;
13683;SDS011;6914;53.552;9.908;2024-02-23T09:01:07;3.37;;;1.53;;
13683;SDS011;6914;53.552;9.908;2024-02-23T09:03:39;6.83;;;1.57;;
13683;SDS011;6914;53.552;9.908;2024-02-23T09:06:09;5.27;;;1.60;;
13683;SDS011;6914;53.552;9.908;2024-02-23T09:08:39;1.40;;;1.40;;
13683;SDS011;6914;53.552;9.908;2024-02-23T09:11:09;1.70;;;1.60;;
13683;SDS011;6914;53.552;9.908;2024-02-23T09:13:40;8.00;;;1.80;;
13683;SDS011;6914;53.552;9.908;2024-02-23T09:16:07;4.93;;;2.23;;
13683;SDS011;6914;53.552;9.908;2024-02-23T09:18:34;12.40;;;2.03;;
13683;SDS011;6914;53.552;9.908;2024-02-23T09:21:03;3.23;;;1.50;;
13683;SDS011;6914;53.552;9.908;2024-02-23T09:23:33;14.50;;;2.60;;
13683;SDS011;6914;53.552;9.908;2024-02-23T09:26:00;10.43;;;2.03;;
13683;SDS011;6914;53.552;9.908;2024-02-23T09:28:29;16.57;;;2.43;;
13683;SDS011;6914;53.552;9.908;2024-02-23T09:30:58;6.10;;;2.03;;
13683;SDS011;6914;53.552;9.908;2024-02-23T09:33:25;9.23;;;2.20;;
13683;SDS011;6914;53.552;9.908;2024-02-23T09:35:56;11.70;;;1.50;;
13683;SDS011;6914;53.552;9.908;2024-02-23T09:38:27;5.63;;;1.77;;
13683;SDS011;6914;53.552;9.908;2024-02-23T09:40:57;3.37;;;1.57;;
13683;SDS011;6914;53.552;9.908;2024-02-23T09:43:27;2.10;;;1.37;;
13683;SDS011;6914;53.552;9.908;2024-02-23T09:45:59;6.73;;;2.00;;
13683;SDS011;6914;53.552;9.908;2024-02-23T09:48:28;1.50;;;1.40;;
13683;SDS011;6914;53.552;9.908;2024-02-23T09:51:00;6.60;;;2.43;;
13683;SDS011;6914;53.552;9.908;2024-02-23T09:53:31;9.17;;;1.97;;
13683;SDS011;6914;53.552;9.908;2024-02-23T09:56:00;12.63;;;1.83;;
13683;SDS011;6914;53.552;9.908;2024-02-23T09:58:31;4.30;;;1.57;;
13683;SDS011;6914;53.552;9.908;2024-02-23T10:01:02;4.73;;;1.60;;
13683;SDS011;6914;53.552;9.908;2024-02-23T10:03:32;9.50;;;1.87;;
13683;SDS011;6914;53.552;9.908;2024-02-23T10:06:02;7.70;;;2.20;;
13683;SDS011;6914;53.552;9.908;2024-02-23T10:08:40;4.87;;;1.67;;
13683;SDS011;6914;53.552;9.908;2024-02-23T10:11:10;3.13;;;2.67;;
13683;SDS011;6914;53.552;9.908;2024-02-23T10:13:40;4.47;;;1.60;;
13683;SDS011;6914;53.552;9.908;2024-02-23T10:16:10;9.20;;;2.10;;
13683;SDS011;6914;53.552;9.908;2024-02-23T10:18:39;12.33;;;2.30;;
13683;SDS011;6914;53.552;9.908;2024-02-23T10:21:08;7.30;;;1.97;;
13683;SDS011;6914;53.552;9.908;2024-02-23T10:23:40;9.53;;;1.93;;
13683;SDS011;6914;53.552;9.908;2024-02-23T10:26:10;5.10;;;1.83;;
13683;SDS011;6914;53.552;9.908;2024-02-23T10:28:48;4.20;;;1.80;;
13683;SDS011;6914;53.552;9.908;2024-02-23T10:31:17;3.73;;;2.37;;
13683;SDS011;6914;53.552;9.908;2024-02-23T10:33:48;4.70;;;2.10;;
13683;SDS011;6914;53.552;9.908;2024-02-23T10:36:19;4.10;;;1.67;;
13683;SDS011;6914;53.552;9.908;2024-02-23T10:38:51;8.43;;;2.20;;
13683;SDS011;6914;53.552;9.908;2024-02-23T10:41:24;6.50;;;2.03;;
13683;SDS011;6914;53.552;9.908;2024-02-23T10:43:56;5.30;;;2.17;;
13683;SDS011;6914;53.552;9.908;2024-02-23T10:46:27;4.83;;;1.70;;
13683;SDS011;6914;53.552;9.908;2024-02-23T10:48:58;4.30;;;2.00;;
13683;SDS011;6914;53.552;9.908;2024-02-23T10:51:27;3.00;;;1.97;;
13683;SDS011;6914;53.552;9.908;2024-02-23T10:53:58;7.43;;;2.13;;
13683;SDS011;6914;53.552;9.908;2024-02-23T10:56:28;3.60;;;1.53;;
13683;SDS011;6914;53.552;9.908;2024-02-23T10:58:58;3.87;;;1.53;;
13683;SDS011;6914;53.552;9.908;2024-02-23T11:01:28;12.00;;;1.77;;
13683;SDS011;6914;53.552;9.908;2024-02-23T11:04:03;4.23;;;1.53;;
13683;SDS011;6914;53.552;9.908;2024-02-23T11:06:34;1.73;;;1.63;;
13683;SDS011;6914;53.552;9.908;2024-02-23T11:09:08;3.90;;;1.50;;
13683;SDS011;6914;53.552;9.908;2024-02-23T11:11:38;2.47;;;1.60;;
13683;SDS011;6914;53.552;9.908;2024-02-23T11:14:09;6.67;;;1.50;;
13683;SDS011;6914;53.552;9.908;2024-02-23T11:16:38;4.60;;;1.40;;
13683;SDS011;6914;53.552;9.908;2024-02-23T11:19:08;10.20;;;1.90;;
13683;SDS011;6914;53.552;9.908;2024-02-23T11:21:38;8.37;;;1.30;;
13683;SDS011;6914;53.552;9.908;2024-02-23T11:24:09;4.63;;;1.40;;
13683;SDS011;6914;53.552;9.908;2024-02-23T11:26:45;6.00;;;1.53;;
13683;SDS011;6914;53.552;9.908;2024-02-23T11:29:16;8.13;;;1.47;;
13683;SDS011;6914;53.552;9.908;2024-02-23T11:31:47;3.33;;;1.43;;
13683;SDS011;6914;53.552;9.908;2024-02-23T11:34:23;4.87;;;1.70;;
13683;SDS011;6914;53.552;9.908;2024-02-23T11:36:51;2.77;;;1.47;;
13683;SDS011;6914;53.552;9.908;2024-02-23T11:39:25;6.57;;;1.73;;
13683;SDS011;6914;53.552;9.908;2024-02-23T11:41:56;5.13;;;1.17;;
13683;SDS011;6914;53.552;9.908;2024-02-23T11:44:26;9.27;;;3.23;;
13683;SDS011;6914;53.552;9.908;2024-02-23T11:46:54;2.63;;;1.90;;
13683;SDS011;6914;53.552;9.908;2024-02-23T11:49:26;9.97;;;1.40;;
13683;SDS011;6914;53.552;9.908;2024-02-23T11:51:54;7.03;;;1.60;;
13683;SDS011;6914;53.552;9.908;2024-02-23T11:54:22;3.57;;;1.73;;
13683;SDS011;6914;53.552;9.908;2024-02-23T11:56:50;4.00;;;1.40;;
13683;SDS011;6914;53.552;9.908;2024-02-23T11:59:18;2.43;;;1.33;;
13683;SDS011;6914;53.552;9.908;2024-02-23T12:01:45;7.07;;;1.87;;
13683;SDS011;6914;53.552;9.908;2024-02-23T12:04:13;4.33;;;1.77;;
13683;SDS011;6914;53.552;9.908;2024-02-23T12:06:41;2.10;;;1.20;;
13683;SDS011;6914;53.552;9.908;2024-02-23T12:09:08;3.93;;;1.23;;
13683;SDS011;6914;53.552;9.908;2024-02-23T12:11:36;2.00;;;1.10;;
13683;SDS011;6914;53.552;9.908;2024-02-23T12:14:06;2.33;;;1.30;;
13683;SDS011;6914;53.552;9.908;2024-02-23T12:16:34;4.73;;;1.07;;
13683;SDS011;6914;53.552;9.908;2024-02-23T12:19:01;1.97;;;1.73;;
13683;SDS011;6914;53.552;9.908;2024-02-23T12:21:28;2.40;;;1.20;;
13683;SDS011;6914;53.552;9.908;2024-02-23T12:23:56;5.83;;;1.53;;
13683;SDS011;6914;53.552;9.908;2024-02-23T12:26:25;4.83;;;1.27;;
13683;SDS011;6914;53.552;9.908;2024-02-23T12:28:52;4.80;;;1.83;;
13683;SDS011;6914;53.552;9.908;2024-02-23T12:31:30;3.17;;;1.10;;
13683;SDS011;6914;53.552;9.908;2024-02-23T12:33:59;4.07;;;1.40;;
13683;SDS011;6914;53.552;9.908;2024-02-23T12:36:29;4.57;;;1.43;;
13683;SDS011;6914;53.552;9.908;2024-02-23T12:39:00;5.13;;;1.50;;
13683;SDS011;6914;53.552;9.908;2024-02-23T12:41:29;1.23;;;1.10;;
13683;SDS011;6914;53.552;9.908;2024-02-23T12:43:58;1.47;;;1.20;;
13683;SDS011;6914;53.552;9.908;2024-02-23T12:46:27;1.80;;;1.27;;
13683;SDS011;6914;53.552;9.908;2024-02-23T12:48:58;3.63;;;1.20;;
13683;SDS011;6914;53.552;9.908;2024-02-23T12:51:27;3.53;;;1.27;;
13683;SDS011;6914;53.552;9.908;2024-02-23T12:53:56;4.60;;;1.10;;
13683;SDS011;6914;53.552;9.908;2024-02-23T12:56:26;2.73;;;1.10;;
13683;SDS011;6914;53.552;9.908;2024-02-23T12:58:53;3.90;;;1.30;;
13683;SDS011;6914;53.552;9.908;2024-02-23T13:01:22;2.67;;;1.00;;
13683;SDS011;6914;53.552;9.908;2024-02-23T13:03:51;0.97;;;0.87;;
13683;SDS011;6914;53.552;9.908;2024-02-23T13:06:21;1.47;;;1.20;;
13683;SDS011;6914;53.552;9.908;2024-02-23T13:08:50;3.03;;;1.33;;
13683;SDS011;6914;53.552;9.908;2024-02-23T13:11:19;1.93;;;1.50;;
13683;SDS011;6914;53.552;9.908;2024-02-23T13:13:47;4.43;;;1.50;;
13683;SDS011;6914;53.552;9.908;2024-02-23T13:16:16;2.00;;;1.07;;
13683;SDS011;6914;53.552;9.908;2024-02-23T13:18:45;1.97;;;1.30;;
13683;SDS011;6914;53.552;9.908;2024-02-23T13:21:15;1.80;;;1.37;;
13683;SDS011;6914;53.552;9.908;2024-02-23T13:23:43;5.50;;;1.47;;
13683;SDS011;6914;53.552;9.908;2024-02-23T13:26:11;1.53;;;0.80;;
13683;SDS011;6914;53.552;9.908;2024-02-23T13:28:39;5.37;;;1.47;;
13683;SDS011;6914;53.552;9.908;2024-02-23T13:31:06;1.37;;;1.10;;
13683;SDS011;6914;53.552;9.908;2024-02-23T13:33:33;3.07;;;1.00;;
13683;SDS011;6914;53.552;9.908;2024-02-23T13:36:01;5.13;;;1.40;;
13683;SDS011;6914;53.552;9.908;2024-02-23T13:38:28;1.13;;;1.03;;
13683;SDS011;6914;53.552;9.908;2024-02-23T13:40:56;1.67;;;1.50;;
13683;SDS011;6914;53.552;9.908;2024-02-23T13:43:23;6.50;;;2.30;;
13683;SDS011;6914;53.552;9.908;2024-02-23T13:45:51;5.93;;;2.47;;
13683;SDS011;6914;53.552;9.908;2024-02-23T13:48:18;7.83;;;1.13;;
13683;SDS011;6914;53.552;9.908;2024-02-23T13:50:47;2.13;;;0.90;;
13683;SDS011;6914;53.552;9.908;2024-02-23T13:53:14;1.43;;;0.80;;
13683;SDS011;6914;53.552;9.908;2024-02-23T13:55:42;7.60;;;1.10;;
13683;SDS011;6914;53.552;9.908;2024-02-23T13:58:12;3.13;;;0.77;;
13683;SDS011;6914;53.552;9.908;2024-02-23T14:00:39;3.50;;;0.93;;
13683;SDS011;6914;53.552;9.908;2024-02-23T14:03:07;3.20;;;1.17;;
13683;SDS011;6914;53.552;9.908;2024-02-23T14:05:36;7.10;;;1.10;;
13683;SDS011;6914;53.552;9.908;2024-02-23T14:08:09;3.57;;;1.27;;
13683;SDS011;6914;53.552;9.908;2024-02-23T14:10:38;4.40;;;0.90;;
13683;SDS011;6914;53.552;9.908;2024-02-23T14:13:08;5.60;;;1.20;;
13683;SDS011;6914;53.552;9.908;2024-02-23T14:15:39;1.93;;;1.20;;
13683;SDS011;6914;53.552;9.908;2024-02-23T14:18:06;3.30;;;1.50;;
13683;SDS011;6914;53.552;9.908;2024-02-23T14:20:33;4.23;;;1.47;;
13683;SDS011;6914;53.552;9.908;2024-02-23T14:23:00;2.50;;;1.47;;
13683;SDS011;6914;53.552;9.908;2024-02-23T14:25:28;9.50;;;1.77;;
13683;SDS011;6914;53.552;9.908;2024-02-23T14:27:55;4.30;;;2.30;;
13683;SDS011;6914;53.552;9.908;2024-02-23T14:30:22;4.70;;;1.80;;
13683;SDS011;6914;53.552;9.908;2024-02-23T14:32:51;2.30;;;1.60;;
13683;SDS011;6914;53.552;9.908;2024-02-23T14:35:18;3.60;;;1.40;;
13683;SDS011;6914;53.552;9.908;2024-02-23T14:37:45;2.90;;;1.23;;
13683;SDS011;6914;53.552;9.908;2024-02-23T14:40:13;6.97;;;1.50;;
13683;SDS011;6914;53.552;9.908;2024-02-23T14:42:40;1.63;;;1.17;;
13683;SDS011;6914;53.552;9.908;2024-02-23T14:45:07;3.50;;;1.20;;
13683;SDS011;6914;53.552;9.908;2024-02-23T14:47:37;11.20;;;1.77;;
13683;SDS011;6914;53.552;9.908;2024-02-23T14:50:06;3.97;;;0.97;;
13683;SDS011;6914;53.552;9.908;2024-02-23T14:52:35;4.70;;;1.10;;
13683;SDS011;6914;53.552;9.908;2024-02-23T14:55:03;2.73;;;1.20;;
13683;SDS011;6914;53.552;9.908;2024-02-23T14:57:30;2.00;;;1.30;;
13683;SDS011;6914;53.552;9.908;2024-02-23T14:59:57;5.23;;;1.43;;
13683;SDS011;6914;53.552;9.908;2024-02-23T15:02:24;2.87;;;1.30;;
13683;SDS011;6914;53.552;9.908;2024-02-23T15:04:51;3.70;;;1.37;;
13683;SDS011;6914;53.552;9.908;2024-02-23T15:07:20;3.63;;;1.70;;
13683;SDS011;6914;53.552;9.908;2024-02-23T15:09:47;6.90;;;3.00;;